sensor_id;sensor_type;location;lat;lon;timestamp;P1;durP1;ratioP1;P2;durP2;ratioP2
7013;SDS011;3547;50.774;12.918;2024-03-25T05:33:54;2.30;;;1.60;;
7013;SDS011;3547;50.774;12.918;2024-03-25T05:36:25;3.63;;;1.60;;
7013;SDS011;3547;50.774;12.918;2024-03-25T05:38:52;3.80;;;1.50;;
7013;SDS011;3547;50.774;12.918;2024-03-25T05:41:21;4.73;;;1.60;;
7013;SDS011;3547;50.774;12.918;2024-03-25T05:43:53;3.13;;;1.70;;
7013;SDS011;3547;50.774;12.918;2024-03-25T05:46:35;1.40;;;1.10;;
7013;SDS011;3547;50.774;12.918;2024-03-25T05:49:05;3.03;;;1.40;;
7013;SDS011;3547;50.774;12.918;2024-03-25T05:51:31;2.63;;;1.37;;
7013;SDS011;3547;50.774;12.918;2024-03-25T05:54:00;4.27;;;1.40;;
7013;SDS011;3547;50.774;12.918;2024-03-25T05:56:26;2.90;;;1.87;;
7013;SDS011;3547;50.774;12.918;2024-03-25T05:58:59;2.97;;;1.67;;
7013;SDS011;3547;50.774;12.918;2024-03-25T06:01:26;2.07;;;1.47;;
7013;SDS011;3547;50.774;12.918;2024-03-25T06:04:01;2.37;;;1.37;;
7013;SDS011;3547;50.774;12.918;2024-03-25T06:06:27;2.40;;;1.50;;
7013;SDS011;3547;50.774;12.918;2024-03-25T06:08:55;1.83;;;1.00;;
7013;SDS011;3547;50.774;12.918;2024-03-25T06:11:26;2.90;;;1.50;;
7013;SDS011;3547;50.774;12.918;2024-03-25T06:13:59;4.53;;;1.73;;
7013;SDS011;3547;50.774;12.918;2024-03-25T06:16:25;1.87;;;1.30;;
7013;SDS011;3547;50.774;12.918;2024-03-25T06:18:51;2.00;;;1.10;;
7013;SDS011;3547;50.774;12.918;2024-03-25T06:21:31;2.33;;;1.20;;
7013;SDS011;3547;50.774;12.918;2024-03-25T06:24:08;1.60;;;1.40;;
7013;SDS011;3547;50.774;12.918;2024-03-25T06:26:34;4.07;;;2.17;;
7013;SDS011;3547;50.774;12.918;2024-03-25T06:29:00;5.83;;;1.53;;
7013;SDS011;3547;50.774;12.918;2024-03-25T06:31:29;1.63;;;1.47;;
7013;SDS011;3547;50.774;12.918;2024-03-25T06:34:14;6.03;;;1.60;;
7013;SDS011;3547;50.774;12.918;2024-03-25T06:36:42;3.47;;;1.47;;
7013;SDS011;3547;50.774;12.918;2024-03-25T06:39:12;2.10;;;1.40;;
7013;SDS011;3547;50.774;12.918;2024-03-25T06:41:41;1.80;;;1.10;;
7013;SDS011;3547;50.774;12.918;2024-03-25T06:44:10;2.17;;;1.20;;
7013;SDS011;3547;50.774;12.918;2024-03-25T06:46:37;1.80;;;1.27;;
7013;SDS011;3547;50.774;12.918;2024-03-25T06:49:06;1.63;;;1.10;;
7013;SDS011;3547;50.774;12.918;2024-03-25T06:51:35;1.90;;;1.10;;
7013;SDS011;3547;50.774;12.918;2024-03-25T06:54:04;2.27;;;1.50;;
7013;SDS011;3547;50.774;12.918;2024-03-25T06:56:38;2.87;;;1.13;;
7013;SDS011;3547;50.774;12.918;2024-03-25T06:59:04;1.10;;;1.03;;
7013;SDS011;3547;50.774;12.918;2024-03-25T07:01:41;1.40;;;1.30;;
7013;SDS011;3547;50.774;12.918;2024-03-25T07:04:08;3.50;;;1.60;;
7013;SDS011;3547;50.774;12.918;2024-03-25T07:06:34;2.70;;;1.50;;
7013;SDS011;3547;50.774;12.918;2024-03-25T07:09:01;1.40;;;1.07;;
7013;SDS011;3547;50.774;12.918;2024-03-25T07:11:30;4.37;;;1.47;;
7013;SDS011;3547;50.774;12.918;2024-03-25T07:13:58;2.83;;;1.40;;
7013;SDS011;3547;50.774;12.918;2024-03-25T07:16:30;2.20;;;1.60;;
7013;SDS011;3547;50.774;12.918;2024-03-25T07:18:57;1.40;;;1.20;;
7013;SDS011;3547;50.774;12.918;2024-03-25T07:21:23;2.53;;;1.60;;
7013;SDS011;3547;50.774;12.918;2024-03-25T07:23:52;2.03;;;1.23;;
7013;SDS011;3547;50.774;12.918;2024-03-25T07:26:21;1.60;;;1.50;;
7013;SDS011;3547;50.774;12.918;2024-03-25T07:28:47;2.97;;;1.70;;
7013;SDS011;3547;50.774;12.918;2024-03-25T07:31:13;1.70;;;1.10;;
7013;SDS011;3547;50.774;12.918;2024-03-25T07:33:39;2.90;;;1.50;;
7013;SDS011;3547;50.774;12.918;2024-03-25T07:36:06;4.90;;;1.70;;
7013;SDS011;3547;50.774;12.918;2024-03-25T07:38:32;1.10;;;1.00;;
7013;SDS011;3547;50.774;12.918;2024-03-25T07:41:04;5.50;;;1.23;;
7013;SDS011;3547;50.774;12.918;2024-03-25T07:43:52;2.03;;;1.40;;
7013;SDS011;3547;50.774;12.918;2024-03-25T07:46:19;2.20;;;1.40;;
7013;SDS011;3547;50.774;12.918;2024-03-25T07:48:45;2.17;;;1.67;;
7013;SDS011;3547;50.774;12.918;2024-03-25T07:51:11;2.30;;;1.73;;
7013;SDS011;3547;50.774;12.918;2024-03-25T07:53:40;4.17;;;1.40;;
7013;SDS011;3547;50.774;12.918;2024-03-25T07:56:40;2.30;;;1.50;;
7013;SDS011;3547;50.774;12.918;2024-03-25T07:59:16;2.10;;;1.37;;
7013;SDS011;3547;50.774;12.918;2024-03-25T08:01:43;2.70;;;1.50;;
7013;SDS011;3547;50.774;12.918;2024-03-25T08:04:09;1.87;;;1.37;;
7013;SDS011;3547;50.774;12.918;2024-03-25T08:06:35;2.10;;;1.60;;
7013;SDS011;3547;50.774;12.918;2024-03-25T08:09:02;1.30;;;1.20;;
7013;SDS011;3547;50.774;12.918;2024-03-25T08:11:35;1.30;;;1.20;;
7013;SDS011;3547;50.774;12.918;2024-03-25T08:14:04;4.00;;;1.33;;
7013;SDS011;3547;50.774;12.918;2024-03-25T08:16:32;2.80;;;1.57;;
7013;SDS011;3547;50.774;12.918;2024-03-25T08:19:15;3.40;;;2.00;;
7013;SDS011;3547;50.774;12.918;2024-03-25T08:21:47;2.70;;;2.07;;
7013;SDS011;3547;50.774;12.918;2024-03-25T08:24:22;2.53;;;2.07;;
7013;SDS011;3547;50.774;12.918;2024-03-25T08:26:56;3.23;;;1.70;;
7013;SDS011;3547;50.774;12.918;2024-03-25T08:29:22;3.47;;;2.00;;
7013;SDS011;3547;50.774;12.918;2024-03-25T08:31:49;2.70;;;1.90;;
7013;SDS011;3547;50.774;12.918;2024-03-25T08:34:15;4.40;;;1.63;;
7013;SDS011;3547;50.774;12.918;2024-03-25T08:36:41;3.20;;;1.73;;
7013;SDS011;3547;50.774;12.918;2024-03-25T08:39:19;1.60;;;1.37;;
7013;SDS011;3547;50.774;12.918;2024-03-25T08:41:47;2.37;;;1.47;;
7013;SDS011;3547;50.774;12.918;2024-03-25T08:47:39;2.70;;;1.60;;
7013;SDS011;3547;50.774;12.918;2024-03-25T08:50:06;4.13;;;1.93;;
7013;SDS011;3547;50.774;12.918;2024-03-25T08:52:32;1.97;;;1.57;;
7013;SDS011;3547;50.774;12.918;2024-03-25T08:54:58;4.50;;;1.30;;
7013;SDS011;3547;50.774;12.918;2024-03-25T08:57:25;1.10;;;1.00;;
7013;SDS011;3547;50.774;12.918;2024-03-25T08:59:54;0.83;;;0.77;;
7013;SDS011;3547;50.774;12.918;2024-03-25T09:02:21;1.93;;;1.10;;
7013;SDS011;3547;50.774;12.918;2024-03-25T09:04:47;0.77;;;0.70;;
7013;SDS011;3547;50.774;12.918;2024-03-25T09:07:17;1.10;;;0.90;;
7013;SDS011;3547;50.774;12.918;2024-03-25T09:09:43;1.30;;;0.80;;
7013;SDS011;3547;50.774;12.918;2024-03-25T09:12:28;1.80;;;1.00;;
7013;SDS011;3547;50.774;12.918;2024-03-25T09:14:54;1.83;;;1.50;;
7013;SDS011;3547;50.774;12.918;2024-03-25T09:17:20;2.37;;;1.70;;
7013;SDS011;3547;50.774;12.918;2024-03-25T09:19:48;3.57;;;1.43;;
7013;SDS011;3547;50.774;12.918;2024-03-25T09:22:14;1.40;;;1.30;;
7013;SDS011;3547;50.774;12.918;2024-03-25T09:24:41;3.07;;;1.77;;
7013;SDS011;3547;50.774;12.918;2024-03-25T09:27:07;3.57;;;1.57;;
7013;SDS011;3547;50.774;12.918;2024-03-25T09:29:33;3.60;;;1.83;;
7013;SDS011;3547;50.774;12.918;2024-03-25T09:32:05;3.13;;;1.73;;
7013;SDS011;3547;50.774;12.918;2024-03-25T09:34:32;3.27;;;1.70;;
7013;SDS011;3547;50.774;12.918;2024-03-25T09:36:58;2.90;;;1.50;;
7013;SDS011;3547;50.774;12.918;2024-03-25T09:39:24;1.97;;;1.20;;
7013;SDS011;3547;50.774;12.918;2024-03-25T09:41:50;2.67;;;1.40;;
7013;SDS011;3547;50.774;12.918;2024-03-25T09:44:24;2.40;;;1.20;;
7013;SDS011;3547;50.774;12.918;2024-03-25T09:46:51;3.00;;;1.50;;
7013;SDS011;3547;50.774;12.918;2024-03-25T09:49:20;1.57;;;1.10;;
7013;SDS011;3547;50.774;12.918;2024-03-25T09:51:46;3.40;;;1.70;;
7013;SDS011;3547;50.774;12.918;2024-03-25T09:54:13;3.80;;;1.43;;
7013;SDS011;3547;50.774;12.918;2024-03-25T09:56:39;4.10;;;1.43;;
7013;SDS011;3547;50.774;12.918;2024-03-25T09:59:08;1.57;;;1.20;;
7013;SDS011;3547;50.774;12.918;2024-03-25T10:01:34;3.97;;;1.20;;
7013;SDS011;3547;50.774;12.918;2024-03-25T10:04:01;1.70;;;1.37;;
7013;SDS011;3547;50.774;12.918;2024-03-25T10:06:29;3.67;;;1.13;;
7013;SDS011;3547;50.774;12.918;2024-03-25T10:08:59;2.13;;;1.37;;
7013;SDS011;3547;50.774;12.918;2024-03-25T10:11:32;2.93;;;1.43;;
7013;SDS011;3547;50.774;12.918;2024-03-25T10:14:01;1.63;;;1.30;;
7013;SDS011;3547;50.774;12.918;2024-03-25T10:16:30;2.70;;;1.50;;
7013;SDS011;3547;50.774;12.918;2024-03-25T10:18:57;3.37;;;1.13;;
7013;SDS011;3547;50.774;12.918;2024-03-25T10:21:26;2.50;;;1.47;;
7013;SDS011;3547;50.774;12.918;2024-03-25T10:23:52;1.83;;;1.27;;
7013;SDS011;3547;50.774;12.918;2024-03-25T10:26:32;1.80;;;1.63;;
7013;SDS011;3547;50.774;12.918;2024-03-25T10:31:37;3.83;;;1.57;;
7013;SDS011;3547;50.774;12.918;2024-03-25T10:34:06;2.60;;;1.60;;
7013;SDS011;3547;50.774;12.918;2024-03-25T10:36:34;3.83;;;1.80;;
7013;SDS011;3547;50.774;12.918;2024-03-25T10:39:12;1.53;;;1.20;;
7013;SDS011;3547;50.774;12.918;2024-03-25T10:41:43;3.43;;;1.53;;
7013;SDS011;3547;50.774;12.918;2024-03-25T10:44:14;4.30;;;1.80;;
7013;SDS011;3547;50.774;12.918;2024-03-25T10:50:20;2.70;;;1.90;;
7013;SDS011;3547;50.774;12.918;2024-03-25T10:53:02;1.37;;;1.23;;
7013;SDS011;3547;50.774;12.918;2024-03-25T10:55:36;1.40;;;1.20;;
7013;SDS011;3547;50.774;12.918;2024-03-25T10:58:05;2.20;;;1.27;;
7013;SDS011;3547;50.774;12.918;2024-03-25T11:01:09;4.40;;;1.43;;
7013;SDS011;3547;50.774;12.918;2024-03-25T11:03:36;2.27;;;1.80;;
7013;SDS011;3547;50.774;12.918;2024-03-25T11:06:03;1.73;;;1.20;;
7013;SDS011;3547;50.774;12.918;2024-03-25T11:08:39;3.53;;;1.40;;
7013;SDS011;3547;50.774;12.918;2024-03-25T11:11:07;5.10;;;1.30;;
7013;SDS011;3547;50.774;12.918;2024-03-25T11:13:36;1.73;;;1.63;;
7013;SDS011;3547;50.774;12.918;2024-03-25T11:16:07;1.50;;;1.40;;
7013;SDS011;3547;50.774;12.918;2024-03-25T11:18:35;4.63;;;1.30;;
7013;SDS011;3547;50.774;12.918;2024-03-25T11:21:06;2.73;;;1.57;;
7013;SDS011;3547;50.774;12.918;2024-03-25T11:23:43;3.50;;;1.67;;
7013;SDS011;3547;50.774;12.918;2024-03-25T11:26:19;2.00;;;1.50;;
7013;SDS011;3547;50.774;12.918;2024-03-25T11:28:50;1.93;;;1.50;;
7013;SDS011;3547;50.774;12.918;2024-03-25T11:31:22;1.13;;;1.10;;
7013;SDS011;3547;50.774;12.918;2024-03-25T11:33:51;2.63;;;1.43;;
7013;SDS011;3547;50.774;12.918;2024-03-25T11:36:18;1.63;;;1.07;;
7013;SDS011;3547;50.774;12.918;2024-03-25T11:39:00;1.20;;;1.10;;
7013;SDS011;3547;50.774;12.918;2024-03-25T11:41:32;3.27;;;1.27;;
7013;SDS011;3547;50.774;12.918;2024-03-25T11:43:59;1.73;;;1.03;;
7013;SDS011;3547;50.774;12.918;2024-03-25T11:46:28;2.13;;;1.43;;
7013;SDS011;3547;50.774;12.918;2024-03-25T11:49:01;1.50;;;1.30;;
7013;SDS011;3547;50.774;12.918;2024-03-25T11:51:32;2.03;;;1.30;;
7013;SDS011;3547;50.774;12.918;2024-03-25T11:53:59;4.27;;;1.43;;
7013;SDS011;3547;50.774;12.918;2024-03-25T11:56:30;5.23;;;1.30;;
7013;SDS011;3547;50.774;12.918;2024-03-25T11:59:01;2.10;;;1.37;;
7013;SDS011;3547;50.774;12.918;2024-03-25T12:01:30;2.53;;;1.20;;
7013;SDS011;3547;50.774;12.918;2024-03-25T12:03:57;0.90;;;0.80;;
7013;SDS011;3547;50.774;12.918;2024-03-25T12:06:23;2.67;;;1.13;;
7013;SDS011;3547;50.774;12.918;2024-03-25T12:08:49;3.90;;;1.17;;
7013;SDS011;3547;50.774;12.918;2024-03-25T12:11:48;2.93;;;0.90;;
7013;SDS011;3547;50.774;12.918;2024-03-25T12:14:16;1.67;;;1.00;;
7013;SDS011;3547;50.774;12.918;2024-03-25T12:16:47;1.97;;;0.90;;
7013;SDS011;3547;50.774;12.918;2024-03-25T12:19:15;2.53;;;1.07;;
7013;SDS011;3547;50.774;12.918;2024-03-25T12:21:43;5.07;;;1.37;;
7013;SDS011;3547;50.774;12.918;2024-03-25T12:24:13;2.00;;;1.10;;
7013;SDS011;3547;50.774;12.918;2024-03-25T12:26:39;0.97;;;0.83;;
7013;SDS011;3547;50.774;12.918;2024-03-25T12:29:06;4.27;;;1.20;;
7013;SDS011;3547;50.774;12.918;2024-03-25T12:31:32;0.87;;;0.87;;
7013;SDS011;3547;50.774;12.918;2024-03-25T12:34:08;0.80;;;0.80;;
7013;SDS011;3547;50.774;12.918;2024-03-25T12:36:35;1.07;;;0.93;;
7013;SDS011;3547;50.774;12.918;2024-03-25T12:39:04;2.03;;;1.03;;
7013;SDS011;3547;50.774;12.918;2024-03-25T12:41:31;2.03;;;0.90;;
7013;SDS011;3547;50.774;12.918;2024-03-25T12:44:05;1.53;;;1.10;;
7013;SDS011;3547;50.774;12.918;2024-03-25T12:46:31;2.80;;;0.90;;
7013;SDS011;3547;50.774;12.918;2024-03-25T12:49:00;1.70;;;1.40;;
7013;SDS011;3547;50.774;12.918;2024-03-25T12:51:27;1.07;;;0.97;;
7013;SDS011;3547;50.774;12.918;2024-03-25T12:53:53;2.20;;;1.50;;
7013;SDS011;3547;50.774;12.918;2024-03-25T12:56:23;1.93;;;1.20;;
7013;SDS011;3547;50.774;12.918;2024-03-25T12:58:50;1.20;;;1.00;;
7013;SDS011;3547;50.774;12.918;2024-03-25T13:01:18;1.90;;;1.00;;
7013;SDS011;3547;50.774;12.918;2024-03-25T13:03:45;1.77;;;1.03;;
7013;SDS011;3547;50.774;12.918;2024-03-25T13:06:14;6.50;;;1.20;;
7013;SDS011;3547;50.774;12.918;2024-03-25T13:08:45;0.70;;;0.67;;
7013;SDS011;3547;50.774;12.918;2024-03-25T13:11:14;1.07;;;0.97;;
7013;SDS011;3547;50.774;12.918;2024-03-25T13:13:40;0.90;;;0.80;;
7013;SDS011;3547;50.774;12.918;2024-03-25T13:16:12;1.63;;;1.20;;
7013;SDS011;3547;50.774;12.918;2024-03-25T13:18:38;1.33;;;1.00;;
7013;SDS011;3547;50.774;12.918;2024-03-25T13:21:04;1.30;;;0.93;;
7013;SDS011;3547;50.774;12.918;2024-03-25T13:23:30;1.67;;;0.97;;
7013;SDS011;3547;50.774;12.918;2024-03-25T13:25:57;1.10;;;0.63;;
7013;SDS011;3547;50.774;12.918;2024-03-25T13:28:26;2.70;;;0.90;;
7013;SDS011;3547;50.774;12.918;2024-03-25T13:30:57;0.80;;;0.70;;
7013;SDS011;3547;50.774;12.918;2024-03-25T13:33:26;1.13;;;1.00;;
7013;SDS011;3547;50.774;12.918;2024-03-25T13:35:53;2.63;;;0.57;;
7013;SDS011;3547;50.774;12.918;2024-03-25T13:38:22;1.03;;;0.87;;
7013;SDS011;3547;50.774;12.918;2024-03-25T13:40:56;0.83;;;0.83;;
7013;SDS011;3547;50.774;12.918;2024-03-25T13:43:23;1.67;;;0.83;;
7013;SDS011;3547;50.774;12.918;2024-03-25T13:45:54;0.87;;;0.87;;
7013;SDS011;3547;50.774;12.918;2024-03-25T13:48:26;0.80;;;0.80;;
7013;SDS011;3547;50.774;12.918;2024-03-25T13:50:55;0.80;;;0.80;;
7013;SDS011;3547;50.774;12.918;2024-03-25T13:53:22;0.80;;;0.80;;
7013;SDS011;3547;50.774;12.918;2024-03-25T13:58:44;1.33;;;0.80;;
7013;SDS011;3547;50.774;12.918;2024-03-25T14:01:13;0.67;;;0.67;;
7013;SDS011;3547;50.774;12.918;2024-03-25T14:03:42;1.80;;;1.30;;
7013;SDS011;3547;50.774;12.918;2024-03-25T14:06:11;7.17;;;4.53;;
7013;SDS011;3547;50.774;12.918;2024-03-25T14:08:40;1.30;;;1.20;;
7013;SDS011;3547;50.774;12.918;2024-03-25T14:11:07;3.60;;;1.40;;
7013;SDS011;3547;50.774;12.918;2024-03-25T14:13:37;1.40;;;1.10;;
7013;SDS011;3547;50.774;12.918;2024-03-25T14:16:06;2.60;;;1.00;;
7013;SDS011;3547;50.774;12.918;2024-03-25T14:18:32;1.40;;;1.00;;
7013;SDS011;3547;50.774;12.918;2024-03-25T14:21:04;0.77;;;0.77;;
7013;SDS011;3547;50.774;12.918;2024-03-25T14:23:30;1.43;;;0.83;;
7013;SDS011;3547;50.774;12.918;2024-03-25T14:25:57;0.80;;;0.70;;
7013;SDS011;3547;50.774;12.918;2024-03-25T14:28:25;1.60;;;1.10;;
7013;SDS011;3547;50.774;12.918;2024-03-25T14:31:00;0.80;;;0.80;;
7013;SDS011;3547;50.774;12.918;2024-03-25T14:33:26;1.17;;;0.70;;
7013;SDS011;3547;50.774;12.918;2024-03-25T14:35:52;1.47;;;1.00;;
7013;SDS011;3547;50.774;12.918;2024-03-25T14:38:21;1.93;;;0.90;;
7013;SDS011;3547;50.774;12.918;2024-03-25T14:40:47;1.50;;;0.90;;
7013;SDS011;3547;50.774;12.918;2024-03-25T14:43:13;2.77;;;0.90;;
7013;SDS011;3547;50.774;12.918;2024-03-25T14:45:41;1.63;;;0.80;;
7013;SDS011;3547;50.774;12.918;2024-03-25T14:48:08;1.03;;;0.80;;
7013;SDS011;3547;50.774;12.918;2024-03-25T14:50:43;0.80;;;0.80;;
7013;SDS011;3547;50.774;12.918;2024-03-25T14:57:09;1.63;;;0.90;;
7013;SDS011;3547;50.774;12.918;2024-03-25T14:59:35;1.47;;;0.60;;
7013;SDS011;3547;50.774;12.918;2024-03-25T15:02:02;2.30;;;0.80;;
7013;SDS011;3547;50.774;12.918;2024-03-25T15:04:31;0.87;;;0.87;;
7013;SDS011;3547;50.774;12.918;2024-03-25T15:06:58;2.80;;;0.87;;
7013;SDS011;3547;50.774;12.918;2024-03-25T15:09:28;1.53;;;0.70;;
7013;SDS011;3547;50.774;12.918;2024-03-25T15:11:54;1.80;;;0.80;;
7013;SDS011;3547;50.774;12.918;2024-03-25T15:14:21;2.20;;;0.60;;
7013;SDS011;3547;50.774;12.918;2024-03-25T15:16:47;1.00;;;0.80;;
7013;SDS011;3547;50.774;12.918;2024-03-25T15:19:13;1.17;;;0.70;;
7013;SDS011;3547;50.774;12.918;2024-03-25T15:21:40;1.23;;;0.80;;
7013;SDS011;3547;50.774;12.918;2024-03-25T15:24:09;1.33;;;0.70;;
7013;SDS011;3547;50.774;12.918;2024-03-25T15:26:38;0.82;;;0.82;;
7013;SDS011;3547;50.774;12.918;2024-03-25T15:29:04;2.83;;;0.90;;
7013;SDS011;3547;50.774;12.918;2024-03-25T15:31:30;0.88;;;0.80;;
7013;SDS011;3547;50.774;12.918;2024-03-25T15:33:56;0.90;;;0.60;;
7013;SDS011;3547;50.774;12.918;2024-03-25T15:36:22;1.30;;;1.05;;
7013;SDS011;3547;50.774;12.918;2024-03-25T15:38:51;1.80;;;0.88;;
7013;SDS011;3547;50.774;12.918;2024-03-25T15:41:17;2.38;;;0.65;;
7013;SDS011;3547;50.774;12.918;2024-03-25T15:43:50;1.48;;;0.90;;
7013;SDS011;3547;50.774;12.918;2024-03-25T15:46:17;2.15;;;1.02;;
7013;SDS011;3547;50.774;12.918;2024-03-25T15:48:43;2.80;;;0.90;;
7013;SDS011;3547;50.774;12.918;2024-03-25T15:51:12;0.70;;;0.70;;
7013;SDS011;3547;50.774;12.918;2024-03-25T15:53:38;2.55;;;1.10;;
7013;SDS011;3547;50.774;12.918;2024-03-25T15:56:04;1.40;;;0.88;;
7013;SDS011;3547;50.774;12.918;2024-03-25T15:58:32;2.55;;;1.13;;
7013;SDS011;3547;50.774;12.918;2024-03-25T16:00:58;1.27;;;1.17;;
7013;SDS011;3547;50.774;12.918;2024-03-25T16:03:25;1.55;;;1.08;;
7013;SDS011;3547;50.774;12.918;2024-03-25T16:05:53;1.25;;;1.00;;
7013;SDS011;3547;50.774;12.918;2024-03-25T16:08:20;1.02;;;0.93;;
7013;SDS011;3547;50.774;12.918;2024-03-25T16:10:46;1.02;;;0.85;;
7013;SDS011;3547;50.774;12.918;2024-03-25T16:13:12;0.85;;;0.85;;
7013;SDS011;3547;50.774;12.918;2024-03-25T16:15:40;0.95;;;0.85;;
7013;SDS011;3547;50.774;12.918;2024-03-25T16:18:07;0.85;;;0.80;;
7013;SDS011;3547;50.774;12.918;2024-03-25T16:20:34;1.00;;;0.73;;
7013;SDS011;3547;50.774;12.918;2024-03-25T16:23:00;1.70;;;0.85;;
7013;SDS011;3547;50.774;12.918;2024-03-25T16:25:26;1.95;;;0.98;;
7013;SDS011;3547;50.774;12.918;2024-03-25T16:27:53;1.55;;;1.17;;
7013;SDS011;3547;50.774;12.918;2024-03-25T16:30:19;2.38;;;1.10;;
7013;SDS011;3547;50.774;12.918;2024-03-25T16:32:52;3.10;;;0.70;;
7013;SDS011;3547;50.774;12.918;2024-03-25T16:35:18;0.95;;;0.90;;
7013;SDS011;3547;50.774;12.918;2024-03-25T16:37:44;0.95;;;0.88;;
7013;SDS011;3547;50.774;12.918;2024-03-25T16:40:11;2.35;;;1.27;;
7013;SDS011;3547;50.774;12.918;2024-03-25T16:42:37;2.90;;;0.90;;
7013;SDS011;3547;50.774;12.918;2024-03-25T16:45:03;1.08;;;0.98;;
7013;SDS011;3547;50.774;12.918;2024-03-25T16:47:31;1.20;;;0.93;;
7013;SDS011;3547;50.774;12.918;2024-03-25T16:49:57;2.38;;;0.90;;
7013;SDS011;3547;50.774;12.918;2024-03-25T16:52:23;0.75;;;0.70;;
7013;SDS011;3547;50.774;12.918;2024-03-25T16:54:49;1.08;;;0.98;;
7013;SDS011;3547;50.774;12.918;2024-03-25T16:57:15;1.33;;;1.17;;
7013;SDS011;3547;50.774;12.918;2024-03-25T16:59:41;2.10;;;1.20;;
7013;SDS011;3547;50.774;12.918;2024-03-25T17:02:07;1.27;;;0.90;;
7013;SDS011;3547;50.774;12.918;2024-03-25T17:04:36;2.20;;;1.00;;
7013;SDS011;3547;50.774;12.918;2024-03-25T17:07:02;2.25;;;0.95;;
7013;SDS011;3547;50.774;12.918;2024-03-25T17:09:28;1.88;;;1.17;;
7013;SDS011;3547;50.774;12.918;2024-03-25T17:11:54;0.90;;;0.90;;
7013;SDS011;3547;50.774;12.918;2024-03-25T17:14:20;1.53;;;1.20;;
7013;SDS011;3547;50.774;12.918;2024-03-25T17:16:47;1.13;;;1.00;;
7013;SDS011;3547;50.774;12.918;2024-03-25T17:19:13;1.20;;;1.10;;
7013;SDS011;3547;50.774;12.918;2024-03-25T17:21:39;2.83;;;1.33;;
7013;SDS011;3547;50.774;12.918;2024-03-25T17:24:05;1.83;;;1.30;;
7013;SDS011;3547;50.774;12.918;2024-03-25T17:26:34;1.90;;;1.70;;
7013;SDS011;3547;50.774;12.918;2024-03-25T17:29:00;3.60;;;1.37;;
7013;SDS011;3547;50.774;12.918;2024-03-25T17:31:27;1.80;;;1.40;;
7013;SDS011;3547;50.774;12.918;2024-03-25T17:33:53;3.53;;;1.60;;
7013;SDS011;3547;50.774;12.918;2024-03-25T17:36:19;1.43;;;1.33;;
7013;SDS011;3547;50.774;12.918;2024-03-25T17:38:45;3.63;;;1.40;;
7013;SDS011;3547;50.774;12.918;2024-03-25T17:41:12;2.83;;;1.60;;
7013;SDS011;3547;50.774;12.918;2024-03-25T17:43:38;2.60;;;2.00;;
7013;SDS011;3547;50.774;12.918;2024-03-25T17:46:04;5.20;;;1.50;;
7013;SDS011;3547;50.774;12.918;2024-03-25T17:48:30;3.47;;;1.60;;
7013;SDS011;3547;50.774;12.918;2024-03-25T17:50:57;4.63;;;1.90;;
7013;SDS011;3547;50.774;12.918;2024-03-25T17:53:27;1.80;;;1.70;;
7013;SDS011;3547;50.774;12.918;2024-03-25T17:55:54;3.47;;;1.77;;
7013;SDS011;3547;50.774;12.918;2024-03-25T17:58:20;2.37;;;1.77;;
7013;SDS011;3547;50.774;12.918;2024-03-25T18:00:48;2.30;;;1.80;;
7013;SDS011;3547;50.774;12.918;2024-03-25T18:03:17;3.87;;;2.03;;
7013;SDS011;3547;50.774;12.918;2024-03-25T18:05:44;2.20;;;1.47;;
7013;SDS011;3547;50.774;12.918;2024-03-25T18:08:10;1.20;;;1.10;;
7013;SDS011;3547;50.774;12.918;2024-03-25T18:10:36;1.97;;;1.70;;
7013;SDS011;3547;50.774;12.918;2024-03-25T18:13:08;1.47;;;1.37;;
7013;SDS011;3547;50.774;12.918;2024-03-25T18:15:49;1.63;;;1.30;;
7013;SDS011;3547;50.774;12.918;2024-03-25T18:18:16;2.30;;;1.60;;
7013;SDS011;3547;50.774;12.918;2024-03-25T18:20:43;3.33;;;2.20;;
7013;SDS011;3547;50.774;12.918;2024-03-25T18:23:10;2.97;;;2.00;;
7013;SDS011;3547;50.774;12.918;2024-03-25T18:25:37;3.53;;;1.87;;
7013;SDS011;3547;50.774;12.918;2024-03-25T18:28:07;2.50;;;1.80;;
7013;SDS011;3547;50.774;12.918;2024-03-25T18:30:36;2.13;;;1.70;;
7013;SDS011;3547;50.774;12.918;2024-03-25T18:33:03;3.17;;;2.10;;
7013;SDS011;3547;50.774;12.918;2024-03-25T18:35:37;8.80;;;3.33;;
7013;SDS011;3547;50.774;12.918;2024-03-25T18:38:05;7.73;;;3.83;;
7013;SDS011;3547;50.774;12.918;2024-03-25T18:40:31;5.47;;;3.13;;
7013;SDS011;3547;50.774;12.918;2024-03-25T18:42:58;6.00;;;2.80;;
7013;SDS011;3547;50.774;12.918;2024-03-25T18:45:24;2.57;;;2.37;;
7013;SDS011;3547;50.774;12.918;2024-03-25T18:47:50;2.43;;;1.93;;
7013;SDS011;3547;50.774;12.918;2024-03-25T18:50:17;3.03;;;2.07;;
7013;SDS011;3547;50.774;12.918;2024-03-25T18:52:43;1.50;;;1.40;;
7013;SDS011;3547;50.774;12.918;2024-03-25T18:55:09;2.63;;;2.03;;
7013;SDS011;3547;50.774;12.918;2024-03-25T18:57:35;3.77;;;2.20;;
7013;SDS011;3547;50.774;12.918;2024-03-25T19:00:01;4.20;;;2.87;;
7013;SDS011;3547;50.774;12.918;2024-03-25T19:02:31;3.73;;;2.07;;
7013;SDS011;3547;50.774;12.918;2024-03-25T19:04:58;2.37;;;2.17;;
7013;SDS011;3547;50.774;12.918;2024-03-25T19:07:24;3.90;;;2.23;;
7013;SDS011;3547;50.774;12.918;2024-03-25T19:09:50;3.13;;;2.00;;
7013;SDS011;3547;50.774;12.918;2024-03-25T19:12:16;2.70;;;1.70;;
7013;SDS011;3547;50.774;12.918;2024-03-25T19:14:43;3.37;;;2.17;;
7013;SDS011;3547;50.774;12.918;2024-03-25T19:17:09;3.60;;;2.50;;
7013;SDS011;3547;50.774;12.918;2024-03-25T19:19:44;4.07;;;2.90;;
7013;SDS011;3547;50.774;12.918;2024-03-25T19:22:20;4.13;;;2.43;;
7013;SDS011;3547;50.774;12.918;2024-03-25T19:24:51;3.53;;;2.00;;
7013;SDS011;3547;50.774;12.918;2024-03-25T19:27:17;4.67;;;2.60;;
7013;SDS011;3547;50.774;12.918;2024-03-25T19:29:43;3.87;;;2.40;;
7013;SDS011;3547;50.774;12.918;2024-03-25T19:32:12;4.37;;;2.30;;
7013;SDS011;3547;50.774;12.918;2024-03-25T19:34:38;5.00;;;3.63;;
7013;SDS011;3547;50.774;12.918;2024-03-25T19:37:04;5.50;;;3.27;;
7013;SDS011;3547;50.774;12.918;2024-03-25T19:39:30;7.17;;;4.47;;
7013;SDS011;3547;50.774;12.918;2024-03-25T19:41:59;8.63;;;4.53;;
7013;SDS011;3547;50.774;12.918;2024-03-25T19:44:25;5.93;;;3.73;;
7013;SDS011;3547;50.774;12.918;2024-03-25T19:46:54;7.63;;;4.00;;
7013;SDS011;3547;50.774;12.918;2024-03-25T19:49:21;10.83;;;3.67;;
7013;SDS011;3547;50.774;12.918;2024-03-25T19:51:47;3.57;;;2.67;;
7013;SDS011;3547;50.774;12.918;2024-03-25T19:54:13;6.07;;;3.23;;
7013;SDS011;3547;50.774;12.918;2024-03-25T19:56:41;8.40;;;3.73;;
7013;SDS011;3547;50.774;12.918;2024-03-25T19:59:07;4.17;;;2.80;;
7013;SDS011;3547;50.774;12.918;2024-03-25T20:01:34;4.60;;;3.13;;
7013;SDS011;3547;50.774;12.918;2024-03-25T20:07:22;4.43;;;2.70;;
7013;SDS011;3547;50.774;12.918;2024-03-25T20:09:49;3.50;;;2.57;;
7013;SDS011;3547;50.774;12.918;2024-03-25T20:12:15;2.70;;;2.37;;
7013;SDS011;3547;50.774;12.918;2024-03-25T20:14:44;3.13;;;2.60;;
7013;SDS011;3547;50.774;12.918;2024-03-25T20:17:10;3.67;;;2.27;;
7013;SDS011;3547;50.774;12.918;2024-03-25T20:19:37;4.30;;;2.13;;
7013;SDS011;3547;50.774;12.918;2024-03-25T20:22:06;3.33;;;2.23;;
7013;SDS011;3547;50.774;12.918;2024-03-25T20:24:32;4.27;;;2.70;;
7013;SDS011;3547;50.774;12.918;2024-03-25T20:26:58;2.93;;;2.30;;
7013;SDS011;3547;50.774;12.918;2024-03-25T20:29:24;4.37;;;2.73;;
7013;SDS011;3547;50.774;12.918;2024-03-25T20:31:50;4.03;;;2.30;;
7013;SDS011;3547;50.774;12.918;2024-03-25T20:37:39;3.03;;;2.30;;
7013;SDS011;3547;50.774;12.918;2024-03-25T20:40:08;3.33;;;2.53;;
7013;SDS011;3547;50.774;12.918;2024-03-25T20:42:38;3.83;;;2.17;;
7013;SDS011;3547;50.774;12.918;2024-03-25T20:45:04;6.00;;;2.60;;
7013;SDS011;3547;50.774;12.918;2024-03-25T20:47:31;3.67;;;2.27;;
7013;SDS011;3547;50.774;12.918;2024-03-25T20:50:00;3.10;;;2.30;;
7013;SDS011;3547;50.774;12.918;2024-03-25T20:52:35;4.40;;;3.07;;
7013;SDS011;3547;50.774;12.918;2024-03-25T20:55:02;5.27;;;2.80;;
7013;SDS011;3547;50.774;12.918;2024-03-25T20:57:31;3.23;;;2.47;;
7013;SDS011;3547;50.774;12.918;2024-03-25T20:59:57;6.23;;;2.77;;
7013;SDS011;3547;50.774;12.918;2024-03-25T21:02:26;3.80;;;2.43;;
7013;SDS011;3547;50.774;12.918;2024-03-25T21:04:55;6.03;;;2.90;;